Terminal Aerodrome Forecast
Issued by NWS Wilmington, OH

Current Version | Previous Version | Text Only | Print | Product List | Glossary On
Versions: 1 2 3 4 5 6 7 8 9 10 11 12 13 14 15
121 FTUS41 KILN 191727 TAFCMH TAF KCMH 191727Z 1918/2018 18006KT 4SM -SHRA BR BKN060 FM192200 18004KT P6SM VCSH BKN110 FM200300 VRB03KT P6SM BKN140 FM201100 VRB03KT 5SM BR BKN025 FM201500 24006KT P6SM BKN035=

USA.gov is the U.S. government's official web portal to all federal, state and local government web resources and services.